Conover, North Carolina
Current Conditions -  °F | °C
As of 7:53 PM on Tuesday 25 Nov 2014 (Local Time) from KHKY Reporting Station
Clear Clear  
Wind Chill: 49°   Ceiling: Unl
Heat Index: 49°   Visibility: 10mi
Dew Point: 37°   Wind: 3mph
Humidity: 64%   Direction: 50°NE
Pressure: 30.05"   Gusts: NA
Location:  35.71°N, 81.22°W
Report Text: KHKY 260053Z 05003KT 10SM CLR 09/03 A3005 RMK AO2 SLP164 T00940028
Loading
Personal Weather Stations






























Interactive Weather Map New forecast layout! Learn more

10-Day Weather Forecast

Advertisements
Track Severe Weather on mobile